createdAt,value
2023-04-20T00:02:03.088Z,14.11
2023-04-20T00:04:31.542Z,14.08
2023-04-20T00:07:00.878Z,14.02
2023-04-20T00:09:28.864Z,14.01
2023-04-20T00:11:56.783Z,13.98
2023-04-20T00:14:24.695Z,13.95
2023-04-20T00:16:52.654Z,13.92
2023-04-20T00:19:21.074Z,13.86
2023-04-20T00:22:01.073Z,13.83
2023-04-20T00:24:30.416Z,13.78
2023-04-20T00:26:58.272Z,13.77
2023-04-20T00:29:26.158Z,13.72
2023-04-20T00:31:54.041Z,13.71
2023-04-20T00:34:21.945Z,13.70
2023-04-20T00:36:49.827Z,13.69
2023-04-20T00:39:17.935Z,13.65
2023-04-20T00:41:47.359Z,13.61
2023-04-20T00:44:15.215Z,13.59
2023-04-20T00:46:43.152Z,13.55
2023-04-20T00:49:11.079Z,13.47
2023-04-20T00:51:38.956Z,13.48
2023-04-20T00:54:07.218Z,13.41
2023-04-20T00:56:35.115Z,13.43
2023-04-20T00:59:04.584Z,13.40
2023-04-20T01:01:32.646Z,13.14
2023-04-20T01:04:00.654Z,13.32
2023-04-20T01:06:28.920Z,13.30
2023-04-20T01:08:57.188Z,13.28
2023-04-20T01:11:25.087Z,13.24
2023-04-20T01:13:53.159Z,13.22
2023-04-20T01:16:23.177Z,13.20
2023-04-20T01:18:51.757Z,13.16
2023-04-20T01:21:21.429Z,13.13
2023-04-20T01:23:50.816Z,13.12
2023-04-20T01:26:19.489Z,13.13
2023-04-20T01:28:47.425Z,13.03
2023-04-20T01:31:15.322Z,13.05
2023-04-20T01:33:43.252Z,13.03
2023-04-20T01:36:11.443Z,12.99
2023-04-20T01:38:39.348Z,12.98
2023-04-20T01:41:09.426Z,12.95
2023-04-20T01:43:37.480Z,12.90
2023-04-20T01:46:06.110Z,12.86
2023-04-20T01:48:34.082Z,12.89
2023-04-20T01:51:01.963Z,12.85
2023-04-20T01:53:29.899Z,12.82
2023-04-20T01:55:57.819Z,12.80
2023-04-20T01:58:27.088Z,12.80
2023-04-20T02:00:54.986Z,12.78
2023-04-20T02:03:23.110Z,12.75
2023-04-20T02:05:51.071Z,12.72
2023-04-20T02:08:19.035Z,12.71
2023-04-20T02:10:46.942Z,12.69
2023-04-20T02:13:15.052Z,12.65
2023-04-20T02:15:44.290Z,12.47
2023-04-20T02:18:12.212Z,12.60
2023-04-20T02:20:40.230Z,12.62
2023-04-20T02:23:08.182Z,12.61
2023-04-20T02:25:36.098Z,12.58
2023-04-20T02:28:04.013Z,12.57
2023-04-20T02:30:31.898Z,12.53
2023-04-20T02:33:01.496Z,12.49
2023-04-20T02:35:29.396Z,12.48
2023-04-20T02:37:57.254Z,12.46
2023-04-20T02:40:25.191Z,12.42
2023-04-20T02:42:53.069Z,12.38
2023-04-20T02:45:21.296Z,12.36
2023-04-20T02:47:49.154Z,12.37
2023-04-20T02:50:18.470Z,12.34
2023-04-20T02:52:46.342Z,12.35
2023-04-20T02:55:14.215Z,12.29
2023-04-20T02:57:42.644Z,12.25
2023-04-20T03:00:13.338Z,12.23
2023-04-20T03:02:41.281Z,12.21
2023-04-20T03:05:10.071Z,12.19
2023-04-20T03:07:39.324Z,12.17
2023-04-20T03:10:08.549Z,12.13
2023-04-20T03:12:36.518Z,12.11
2023-04-20T03:15:06.286Z,12.06
2023-04-20T03:17:34.232Z,11.99
2023-04-20T03:20:02.438Z,11.93
2023-04-20T03:22:30.335Z,11.89
2023-04-20T03:24:59.877Z,11.84
2023-04-20T03:27:27.734Z,11.83
2023-04-20T03:29:55.739Z,11.80
2023-04-20T03:32:23.707Z,11.73
2023-04-20T03:34:51.912Z,11.73
2023-04-20T03:37:19.781Z,11.47
2023-04-20T03:39:47.621Z,11.70
2023-04-20T03:42:16.921Z,11.63
2023-04-20T03:44:44.788Z,11.63
2023-04-20T03:47:12.762Z,11.58
2023-04-20T03:49:40.678Z,11.57
2023-04-20T03:52:09.232Z,11.55
2023-04-20T03:54:38.511Z,11.50
2023-04-20T03:57:06.378Z,11.50
2023-04-20T03:59:35.852Z,11.44
2023-04-20T04:02:05.890Z,11.39
2023-04-20T04:04:33.992Z,11.39
2023-04-20T04:07:02.116Z,11.34
2023-04-20T04:09:30.103Z,11.31
2023-04-20T04:11:58.797Z,11.28
2023-04-20T04:14:26.924Z,11.26
2023-04-20T04:16:56.301Z,11.25
2023-04-20T04:19:24.213Z,11.20
2023-04-20T04:21:52.153Z,11.23
2023-04-20T04:24:20.003Z,11.20
2023-04-20T04:26:48.694Z,11.20
2023-04-20T04:29:16.686Z,11.19
2023-04-20T04:31:44.769Z,11.16
2023-04-20T04:34:14.134Z,11.19
2023-04-20T04:36:42.069Z,11.20
2023-04-20T04:39:09.928Z,11.21
2023-04-20T04:41:37.874Z,11.20
2023-04-20T04:44:06.158Z,11.17
2023-04-20T04:46:34.073Z,11.14
2023-04-20T04:49:02.922Z,11.14
2023-04-20T04:51:33.338Z,11.14
2023-04-20T04:54:01.338Z,11.17
2023-04-20T04:56:29.613Z,11.17
2023-04-20T04:58:57.577Z,11.16
2023-04-20T05:01:25.943Z,11.15
2023-04-20T05:03:54.106Z,11.12
2023-04-20T05:06:22.221Z,11.13
2023-04-20T05:08:51.621Z,11.09
2023-04-20T05:11:19.703Z,11.09
2023-04-20T05:13:48.554Z,11.01
2023-04-20T05:16:19.503Z,11.07
2023-04-20T05:18:47.477Z,11.07
2023-04-20T05:21:21.429Z,11.07
2023-04-20T05:23:49.405Z,10.94
2023-04-20T05:26:18.947Z,11.16
2023-04-20T05:28:46.955Z,11.19
2023-04-20T05:31:14.851Z,11.21
2023-04-20T05:33:42.760Z,11.24
2023-04-20T05:36:11.456Z,11.25
2023-04-20T05:38:39.587Z,11.31
2023-04-20T05:41:07.668Z,11.41
2023-04-20T05:43:36.939Z,11.43
2023-04-20T05:46:05.431Z,11.44
2023-04-20T05:48:33.437Z,11.26
2023-04-20T05:51:01.420Z,11.49
2023-04-20T05:53:29.334Z,11.40
2023-04-20T05:55:57.201Z,11.50
2023-04-20T05:58:25.327Z,11.51
2023-04-20T06:00:54.724Z,11.63
2023-04-20T06:03:22.772Z,11.73
2023-04-20T06:05:50.858Z,11.90
2023-04-20T06:08:19.447Z,11.94
2023-04-20T06:10:47.327Z,11.92
2023-04-20T06:13:15.220Z,11.96
2023-04-20T06:15:43.581Z,11.96
2023-04-20T06:18:13.226Z,11.94
2023-04-20T06:20:41.690Z,11.56
2023-04-20T06:23:10.031Z,11.95
2023-04-20T06:25:37.965Z,11.97
2023-04-20T06:28:06.564Z,12.02
2023-04-20T06:30:34.786Z,12.05
2023-04-20T06:33:03.074Z,12.10
2023-04-20T06:35:32.618Z,12.14
2023-04-20T06:38:02.521Z,12.20
2023-04-20T06:40:30.525Z,12.26
2023-04-20T06:42:58.412Z,12.31
2023-04-20T06:45:26.449Z,12.30
2023-04-20T06:47:54.589Z,12.41
2023-04-20T06:50:22.713Z,12.46
2023-04-20T06:52:52.193Z,12.49
2023-04-20T06:55:23.514Z,12.47
2023-04-20T06:57:51.407Z,12.64
2023-04-20T07:00:28.451Z,12.64
2023-04-20T07:02:56.748Z,12.77
2023-04-20T07:05:24.940Z,12.87
2023-04-20T07:07:54.261Z,12.99
2023-04-20T07:10:22.347Z,13.11
2023-04-20T07:12:50.414Z,13.25
2023-04-20T07:15:18.518Z,13.35
2023-04-20T07:17:46.394Z,13.45
2023-04-20T07:20:14.383Z,13.57
2023-04-20T07:22:43.225Z,13.67
2023-04-20T07:25:12.770Z,13.73
2023-04-20T07:27:41.622Z,13.82
2023-04-20T07:30:10.731Z,13.86
2023-04-20T07:32:39.597Z,13.89
2023-04-20T07:35:08.454Z,14.01
2023-04-20T07:37:36.915Z,14.09
2023-04-20T07:40:06.880Z,14.12
2023-04-20T07:42:37.310Z,14.21
2023-04-20T07:45:06.261Z,14.22
2023-04-20T07:47:34.797Z,14.26
2023-04-20T07:50:03.193Z,14.32
2023-04-20T07:52:31.184Z,14.38
2023-04-20T07:54:59.668Z,14.44
2023-04-20T07:57:27.778Z,14.48
2023-04-20T07:59:57.080Z,14.57
2023-04-20T08:02:25.150Z,14.69
2023-04-20T08:04:53.573Z,14.69
2023-04-20T08:07:21.754Z,14.72
2023-04-20T08:09:49.615Z,14.68
2023-04-20T08:12:17.482Z,14.82
2023-04-20T08:14:45.546Z,14.94
2023-04-20T08:17:14.873Z,15.02
2023-04-20T08:19:44.654Z,15.13
2023-04-20T08:22:13.942Z,15.28
2023-04-20T08:24:41.851Z,15.34
2023-04-20T08:27:10.033Z,15.37
2023-04-20T08:29:37.952Z,15.53
2023-04-20T08:32:09.034Z,15.58
2023-04-20T08:34:38.544Z,15.63
2023-04-20T08:37:06.828Z,15.71
2023-04-20T08:39:34.892Z,15.77
2023-04-20T08:42:03.341Z,15.84
2023-04-20T08:44:31.432Z,15.96
2023-04-20T08:47:01.259Z,16.07
2023-04-20T08:49:29.655Z,16.17
2023-04-20T08:51:58.930Z,16.23
2023-04-20T08:54:27.219Z,16.28
2023-04-20T08:56:55.500Z,16.29
2023-04-20T08:59:23.453Z,16.46
2023-04-20T09:01:51.540Z,16.48
2023-04-20T09:04:20.638Z,16.50
2023-04-20T09:06:50.513Z,16.51
2023-04-20T09:09:19.971Z,16.51
2023-04-20T09:11:48.148Z,16.36
2023-04-20T09:14:18.305Z,16.47
2023-04-20T09:16:52.978Z,16.41
2023-04-20T09:19:24.913Z,16.52
2023-04-20T09:21:54.943Z,16.56
2023-04-20T09:24:24.791Z,16.62
2023-04-20T09:26:52.748Z,16.71
2023-04-20T09:29:21.187Z,16.80
2023-04-20T09:31:49.426Z,16.88
2023-04-20T09:34:17.930Z,16.97
2023-04-20T09:36:50.412Z,17.00
2023-04-20T09:39:19.053Z,16.99
2023-04-20T09:41:48.336Z,17.05
2023-04-20T09:44:17.213Z,17.05
2023-04-20T09:46:46.719Z,17.09
2023-04-20T09:49:15.346Z,17.19
2023-04-20T09:51:45.225Z,17.24
2023-04-20T09:54:13.407Z,17.36
2023-04-20T09:56:41.299Z,17.45
2023-04-20T09:59:10.634Z,17.53
2023-04-20T10:01:38.710Z,17.58
2023-04-20T10:04:09.036Z,17.67
2023-04-20T10:06:37.497Z,17.70
2023-04-20T10:09:06.477Z,17.84
2023-04-20T10:11:45.125Z,17.83
2023-04-20T10:14:25.525Z,17.95
2023-04-20T10:17:01.114Z,17.96
2023-04-20T10:19:38.751Z,18.04
2023-04-20T10:22:07.052Z,17.89
2023-04-20T10:24:35.874Z,18.08
2023-04-20T10:27:04.168Z,18.10
2023-04-20T10:29:36.522Z,18.19
2023-04-20T10:32:06.090Z,18.28
2023-04-20T10:34:38.003Z,18.35
2023-04-20T10:37:12.464Z,18.41
2023-04-20T10:39:46.211Z,18.59
2023-04-20T10:42:15.992Z,18.70
2023-04-20T10:44:52.777Z,18.84
2023-04-20T10:47:28.053Z,18.94
2023-04-20T10:49:56.540Z,19.00
2023-04-20T10:52:34.550Z,19.11
2023-04-20T10:55:02.454Z,19.23
2023-04-20T10:57:30.378Z,19.25
2023-04-20T10:59:59.895Z,19.43
2023-04-20T11:02:28.239Z,19.50
2023-04-20T11:05:01.016Z,19.61
2023-04-20T11:07:29.026Z,19.69
2023-04-20T11:09:57.897Z,19.70
2023-04-20T11:12:25.818Z,19.73
2023-04-20T11:14:54.334Z,19.85
2023-04-20T11:17:32.649Z,20.08
2023-04-20T11:20:09.366Z,20.14
2023-04-20T11:22:37.306Z,19.93
2023-04-20T11:25:06.929Z,19.84
2023-04-20T11:27:38.054Z,20.14
2023-04-20T11:30:08.053Z,20.55
2023-04-20T11:32:38.274Z,21.02
2023-04-20T11:35:08.743Z,21.47
2023-04-20T11:37:47.067Z,21.82
2023-04-20T11:40:15.171Z,22.08
2023-04-20T11:42:43.186Z,22.32
2023-04-20T11:45:12.239Z,22.44
2023-04-20T11:47:41.953Z,22.79
2023-04-20T11:50:10.467Z,23.08
2023-04-20T11:52:38.570Z,23.32
2023-04-20T11:55:08.077Z,23.57
2023-04-20T11:57:36.271Z,23.75
2023-04-20T12:00:04.907Z,23.86
2023-04-20T12:02:32.975Z,23.93
2023-04-20T12:05:03.257Z,24.06
2023-04-20T12:07:31.230Z,24.17
2023-04-20T12:09:59.126Z,24.31
2023-04-20T12:12:27.032Z,24.44
2023-04-20T12:14:54.996Z,24.52
2023-04-20T12:17:23.053Z,24.59
2023-04-20T12:19:51.113Z,24.68
2023-04-20T12:22:20.428Z,24.73
2023-04-20T12:24:48.395Z,24.87
2023-04-20T12:27:16.862Z,24.94
2023-04-20T12:29:44.710Z,25.08
2023-04-20T12:32:12.630Z,25.15
2023-04-20T12:34:40.580Z,25.31
2023-04-20T12:37:08.484Z,25.38
2023-04-20T12:39:37.719Z,25.44
2023-04-20T12:42:05.797Z,25.56
2023-04-20T12:44:35.927Z,25.68
2023-04-20T12:47:04.045Z,25.70
2023-04-20T12:49:33.627Z,25.61
2023-04-20T12:52:01.838Z,25.63
2023-04-20T12:54:29.743Z,25.71
2023-04-20T12:56:59.006Z,25.73
2023-04-20T12:59:27.406Z,25.83
2023-04-20T13:01:55.958Z,25.87
2023-04-20T13:04:24.212Z,25.87
2023-04-20T13:06:52.558Z,25.89
2023-04-20T13:09:20.910Z,25.99
2023-04-20T13:11:48.840Z,26.28
2023-04-20T13:14:18.502Z,26.38
2023-04-20T13:16:46.795Z,26.39
2023-04-20T13:19:14.712Z,26.50
2023-04-20T13:21:42.621Z,26.62
2023-04-20T13:24:10.493Z,26.76
2023-04-20T13:26:38.407Z,26.85
2023-04-20T13:29:06.366Z,26.88
2023-04-20T13:31:37.109Z,26.92
2023-04-20T13:34:05.205Z,27.11
2023-04-20T13:36:33.287Z,27.19
2023-04-20T13:39:03.663Z,27.17
2023-04-20T13:41:31.784Z,27.23
2023-04-20T13:44:01.500Z,27.29
2023-04-20T13:46:29.576Z,27.26
2023-04-20T13:48:58.894Z,27.25
2023-04-20T13:51:27.172Z,27.28
2023-04-20T13:53:55.090Z,27.33
2023-04-20T13:56:22.977Z,27.39
2023-04-20T13:58:51.249Z,27.44
2023-04-20T14:01:19.690Z,27.35
2023-04-20T14:03:47.681Z,27.54
2023-04-20T14:06:17.110Z,27.67
2023-04-20T14:08:45.095Z,27.82
2023-04-20T14:11:13.082Z,27.91
2023-04-20T14:13:41.257Z,27.83
2023-04-20T14:16:11.099Z,28.04
2023-04-20T14:18:39.541Z,28.36
2023-04-20T14:21:07.619Z,28.43
2023-04-20T14:23:36.990Z,28.45
2023-04-20T14:26:04.988Z,28.65
2023-04-20T14:28:33.481Z,28.90
2023-04-20T14:31:02.368Z,29.12
2023-04-20T14:33:30.505Z,29.18
2023-04-20T14:35:58.464Z,29.10
2023-04-20T14:38:26.393Z,29.14
2023-04-20T14:40:55.635Z,29.03
2023-04-20T14:43:23.989Z,28.91
2023-04-20T14:45:51.918Z,28.89
2023-04-20T14:48:19.810Z,28.94
2023-04-20T14:50:47.683Z,29.10
2023-04-20T14:53:15.500Z,29.20
2023-04-20T14:55:43.487Z,29.33
2023-04-20T14:58:12.797Z,29.29
2023-04-20T15:00:40.672Z,29.18
2023-04-20T15:03:08.755Z,29.16
2023-04-20T15:05:37.201Z,29.06
2023-04-20T15:08:05.535Z,28.98
2023-04-20T15:10:34.083Z,28.99
2023-04-20T15:13:02.629Z,29.03
2023-04-20T15:15:46.886Z,28.92
2023-04-20T15:18:15.953Z,28.75
2023-04-20T15:20:43.882Z,28.81
2023-04-20T15:23:11.794Z,28.82
2023-04-20T15:25:39.804Z,28.87
2023-04-20T15:28:07.722Z,29.06
2023-04-20T15:30:37.039Z,29.18
2023-04-20T15:33:05.555Z,29.10
2023-04-20T15:35:33.775Z,28.88
2023-04-20T15:38:01.741Z,28.79
2023-04-20T15:40:30.434Z,28.90
2023-04-20T15:42:58.597Z,29.06
2023-04-20T15:45:26.507Z,29.15
2023-04-20T15:47:56.086Z,29.30
2023-04-20T15:50:24.189Z,29.42
2023-04-20T15:52:53.040Z,29.66
2023-04-20T15:55:21.171Z,29.77
2023-04-20T15:57:49.284Z,29.70
2023-04-20T16:00:18.077Z,29.63
2023-04-20T16:02:46.371Z,29.56
2023-04-20T16:05:16.109Z,29.60
2023-04-20T16:07:44.175Z,29.53
2023-04-20T16:10:12.475Z,29.46
2023-04-20T16:12:40.474Z,29.33
2023-04-20T16:15:09.677Z,29.36
2023-04-20T16:17:37.811Z,29.15
2023-04-20T16:20:06.645Z,29.30
2023-04-20T16:22:36.345Z,29.20
2023-04-20T16:25:04.388Z,29.13
2023-04-20T16:27:32.916Z,29.05
2023-04-20T16:30:00.870Z,28.92
2023-04-20T16:32:29.220Z,28.79
2023-04-20T16:34:57.155Z,28.55
2023-04-20T16:37:25.450Z,28.39
2023-04-20T16:39:54.800Z,28.33
2023-04-20T16:42:22.658Z,28.20
2023-04-20T16:44:50.632Z,28.14
2023-04-20T16:47:18.492Z,27.95
2023-04-20T16:49:46.378Z,28.18
2023-04-20T16:52:14.600Z,28.18
2023-04-20T16:54:42.737Z,28.30
2023-04-20T16:57:12.051Z,28.48
2023-04-20T16:59:40.014Z,28.61
2023-04-20T17:02:08.103Z,28.65
2023-04-20T17:04:37.260Z,28.65
2023-04-20T17:07:05.533Z,28.56
2023-04-20T17:09:33.825Z,28.33
2023-04-20T17:12:02.258Z,28.02
2023-04-20T17:14:32.303Z,27.90
2023-04-20T17:17:00.444Z,27.67
2023-04-20T17:19:30.775Z,27.52
2023-04-20T17:21:59.279Z,27.40
2023-04-20T17:24:27.214Z,27.24
2023-04-20T17:26:55.070Z,27.15
2023-04-20T17:29:23.003Z,26.89
2023-04-20T17:31:52.817Z,26.28
2023-04-20T17:34:20.917Z,25.84
2023-04-20T17:36:48.995Z,25.41
2023-04-20T17:39:16.884Z,25.04
2023-04-20T17:41:45.174Z,24.44
2023-04-20T17:44:13.305Z,23.83
2023-04-20T17:46:41.517Z,23.35
2023-04-20T17:49:10.831Z,22.99
2023-04-20T17:51:38.755Z,22.77
2023-04-20T17:54:07.779Z,22.52
2023-04-20T17:56:35.766Z,22.29
2023-04-20T17:59:03.719Z,22.06
2023-04-20T18:01:34.499Z,21.86
2023-04-20T18:04:02.667Z,21.64
2023-04-20T18:06:33.709Z,21.43
2023-04-20T18:09:04.118Z,21.27
2023-04-20T18:11:32.482Z,21.02
2023-04-20T18:14:01.140Z,20.89
2023-04-20T18:16:29.081Z,20.74
2023-04-20T18:18:57.128Z,20.48
2023-04-20T18:21:25.043Z,20.38
2023-04-20T18:23:55.530Z,20.29
2023-04-20T18:26:24.716Z,20.16
2023-04-20T18:28:52.720Z,20.06
2023-04-20T18:31:20.826Z,19.96
2023-04-20T18:33:48.958Z,19.89
2023-04-20T18:36:17.160Z,19.75
2023-04-20T18:38:45.076Z,19.64
2023-04-20T18:41:14.939Z,19.56
2023-04-20T18:43:44.798Z,19.47
2023-04-20T18:46:12.762Z,19.39
2023-04-20T18:48:41.067Z,19.28
2023-04-20T18:51:08.991Z,19.20
2023-04-20T18:53:36.937Z,19.09
2023-04-20T18:56:05.374Z,18.99
2023-04-20T18:58:34.627Z,18.90
2023-04-20T19:01:03.632Z,18.81
2023-04-20T19:03:31.944Z,18.73
2023-04-20T19:05:59.930Z,18.65
2023-04-20T19:08:28.082Z,18.54
2023-04-20T19:10:57.376Z,18.44
2023-04-20T19:13:25.350Z,18.38
2023-04-20T19:15:58.130Z,18.28
2023-04-20T19:18:26.733Z,18.17
2023-04-20T19:20:55.208Z,18.09
2023-04-20T19:23:23.223Z,17.98
2023-04-20T19:25:51.133Z,17.88
2023-04-20T19:28:19.016Z,17.75
2023-04-20T19:30:46.939Z,17.58
2023-04-20T19:33:16.388Z,17.47
2023-04-20T19:35:48.239Z,17.39
2023-04-20T19:38:16.342Z,17.28
2023-04-20T19:40:44.187Z,17.16
2023-04-20T19:43:12.066Z,17.10
2023-04-20T19:45:40.060Z,16.93
2023-04-20T19:48:08.023Z,16.92
2023-04-20T19:50:37.318Z,16.85
2023-04-20T19:53:05.257Z,16.77
2023-04-20T19:55:33.141Z,16.70
2023-04-20T19:58:01.039Z,16.62
2023-04-20T20:00:29.006Z,16.57
2023-04-20T20:02:57.008Z,16.56
2023-04-20T20:05:25.064Z,16.53
2023-04-20T20:07:54.345Z,16.54
2023-04-20T20:10:22.352Z,16.52
2023-04-20T20:12:50.238Z,16.47
2023-04-20T20:15:18.187Z,16.44
2023-04-20T20:17:47.641Z,16.38
2023-04-20T20:20:16.383Z,16.33
2023-04-20T20:22:48.320Z,16.22
2023-04-20T20:25:18.140Z,16.12
2023-04-20T20:27:46.210Z,16.02
2023-04-20T20:30:14.990Z,15.93
2023-04-20T20:32:42.907Z,15.81
2023-04-20T20:35:13.055Z,15.74
2023-04-20T20:37:40.985Z,15.67
2023-04-20T20:40:10.694Z,15.66
2023-04-20T20:42:40.032Z,15.60
2023-04-20T20:45:10.877Z,15.56
2023-04-20T20:47:38.837Z,15.53
2023-04-20T20:50:07.855Z,15.45
2023-04-20T20:52:35.739Z,15.40
2023-04-20T20:55:04.137Z,15.34
2023-04-20T20:57:31.991Z,15.31
2023-04-20T21:00:01.652Z,15.29
2023-04-20T21:02:29.663Z,15.21
2023-04-20T21:04:57.702Z,15.22
2023-04-20T21:07:25.658Z,15.20
2023-04-20T21:09:53.535Z,15.19
2023-04-20T21:12:21.467Z,15.22
2023-04-20T21:14:51.324Z,15.25
2023-04-20T21:17:20.647Z,15.29
2023-04-20T21:19:48.521Z,15.29
2023-04-20T21:22:16.419Z,15.30
2023-04-20T21:24:44.336Z,15.26
2023-04-20T21:27:12.230Z,15.32
2023-04-20T21:29:40.111Z,15.30
2023-04-20T21:32:09.672Z,15.33
2023-04-20T21:34:38.943Z,15.33
2023-04-20T21:37:07.089Z,15.25
2023-04-20T21:39:35.015Z,15.29
2023-04-20T21:42:03.223Z,15.10
2023-04-20T21:44:31.136Z,15.25
2023-04-20T21:47:02.315Z,15.18
2023-04-20T21:49:30.872Z,15.16
2023-04-20T21:52:00.123Z,15.13
2023-04-20T21:54:27.989Z,15.08
2023-04-20T21:56:55.859Z,15.04
2023-04-20T21:59:23.755Z,15.01
2023-04-20T22:01:51.760Z,14.98
2023-04-20T22:04:20.370Z,14.95
2023-04-20T22:06:48.926Z,14.96
2023-04-20T22:09:18.489Z,14.94
2023-04-20T22:11:47.787Z,14.93
2023-04-20T22:14:15.735Z,14.92
2023-04-20T22:16:43.682Z,14.90
2023-04-20T22:19:11.606Z,14.88
2023-04-20T22:21:39.512Z,14.86
2023-04-20T22:24:07.838Z,14.82
2023-04-20T22:26:37.097Z,14.77
2023-04-20T22:29:05.024Z,14.73
2023-04-20T22:31:32.903Z,14.68
2023-04-20T22:34:00.803Z,14.66
2023-04-20T22:36:29.028Z,14.54
2023-04-20T22:38:56.963Z,14.64
2023-04-20T22:41:24.897Z,14.64
2023-04-20T22:43:54.137Z,14.67
2023-04-20T22:46:22.101Z,14.63
2023-04-20T22:48:50.148Z,14.64
2023-04-20T22:51:18.276Z,14.61
2023-04-20T22:53:46.231Z,14.63
2023-04-20T22:56:14.162Z,14.65
2023-04-20T22:58:42.079Z,14.65
2023-04-20T23:01:11.328Z,14.64
2023-04-20T23:03:39.374Z,14.67
2023-04-20T23:06:07.811Z,14.68
2023-04-20T23:08:35.749Z,14.74
2023-04-20T23:11:04.696Z,14.77
2023-04-20T23:13:33.277Z,14.85
2023-04-20T23:16:01.209Z,14.84
2023-04-20T23:18:30.493Z,14.91
2023-04-20T23:20:58.407Z,14.90
2023-04-20T23:23:26.394Z,14.90
2023-04-20T23:25:54.333Z,14.82
2023-04-20T23:28:22.204Z,14.91
2023-04-20T23:30:50.091Z,14.88
2023-04-20T23:33:17.957Z,14.86
2023-04-20T23:35:47.217Z,14.84
2023-04-20T23:38:15.333Z,14.69
2023-04-20T23:40:43.228Z,14.66
2023-04-20T23:43:11.170Z,14.59
2023-04-20T23:45:39.077Z,14.38
2023-04-20T23:48:07.541Z,14.54
2023-04-20T23:50:37.026Z,14.52
2023-04-20T23:53:07.496Z,14.47
2023-04-20T23:55:35.409Z,14.43
2023-04-20T23:58:03.275Z,14.40
